createdAt,value
2018-04-15T00:00:52.053Z,0
2018-04-15T00:02:00.887Z,0
2018-04-15T00:03:09.990Z,0
2018-04-15T00:04:18.822Z,0
2018-04-15T00:05:27.652Z,0
2018-04-15T00:06:36.633Z,0
2018-04-15T00:07:45.460Z,0
2018-04-15T00:08:54.293Z,0
2018-04-15T00:10:03.126Z,0
2018-04-15T00:11:11.958Z,0
2018-04-15T00:12:20.790Z,0
2018-04-15T00:13:29.622Z,0
2018-04-15T00:14:38.452Z,0
2018-04-15T00:15:48.108Z,0
2018-04-15T00:16:57.222Z,0
2018-04-15T00:18:06.052Z,0
2018-04-15T00:19:14.883Z,0
2018-04-15T00:20:23.714Z,0
2018-04-15T00:21:32.545Z,0
2018-04-15T00:22:41.650Z,0
2018-04-15T00:23:50.479Z,0
2018-04-15T00:24:59.591Z,0
2018-04-15T00:26:08.413Z,0
2018-04-15T00:27:17.242Z,0
2018-04-15T00:28:26.071Z,0
2018-04-15T00:29:35.203Z,0
2018-04-15T00:30:44.035Z,0
2018-04-15T00:31:52.867Z,0
2018-04-15T00:33:01.694Z,0
2018-04-15T00:34:10.799Z,0
2018-04-15T00:35:19.828Z,0
2018-04-15T00:36:29.214Z,0
2018-04-15T00:37:38.323Z,0
2018-04-15T00:38:47.165Z,0
2018-04-15T00:39:55.987Z,0
2018-04-15T00:41:05.066Z,0
2018-04-15T00:42:13.896Z,0
2018-04-15T00:43:22.725Z,0
2018-04-15T00:44:31.553Z,0
2018-04-15T00:45:40.380Z,0
2018-04-15T00:46:49.638Z,0
2018-04-15T00:47:58.469Z,0
2018-04-15T00:49:07.302Z,0
2018-04-15T00:50:16.131Z,0
2018-04-15T00:51:24.965Z,0
2018-04-15T00:52:34.656Z,0
2018-04-15T00:53:43.488Z,0
2018-04-15T00:54:52.318Z,0
2018-04-15T00:56:01.149Z,0
2018-04-15T00:57:09.980Z,0
2018-04-15T00:58:18.808Z,0
2018-04-15T00:59:27.639Z,0
2018-04-15T01:00:36.466Z,0
2018-04-15T01:01:45.570Z,0
2018-04-15T01:02:54.677Z,0
2018-04-15T01:04:03.812Z,0
2018-04-15T01:05:12.916Z,0
2018-04-15T01:06:21.748Z,0
2018-04-15T01:07:30.854Z,0
2018-04-15T01:08:39.964Z,0
2018-04-15T01:09:48.897Z,0
2018-04-15T01:10:58.275Z,0
2018-04-15T01:12:07.102Z,0
2018-04-15T01:13:15.933Z,0
2018-04-15T01:14:24.769Z,0
2018-04-15T01:15:33.745Z,0
2018-04-15T01:16:42.574Z,0
2018-04-15T01:17:51.404Z,0
2018-04-15T01:19:00.236Z,0
2018-04-15T01:20:09.090Z,0
2018-04-15T01:21:17.921Z,0
2018-04-15T01:22:27.027Z,0
2018-04-15T01:23:35.856Z,0
2018-04-15T01:24:44.958Z,0
2018-04-15T01:25:53.783Z,0
2018-04-15T01:27:02.715Z,0
2018-04-15T01:28:11.549Z,0
2018-04-15T01:29:20.382Z,0
2018-04-15T01:30:29.493Z,0
2018-04-15T01:31:38.325Z,0
2018-04-15T01:32:47.251Z,0
2018-04-15T01:33:56.030Z,0
2018-04-15T01:35:04.860Z,0
2018-04-15T01:36:13.691Z,0
2018-04-15T01:37:22.521Z,0
2018-04-15T01:38:31.501Z,0
2018-04-15T01:39:40.890Z,0
2018-04-15T01:40:49.720Z,0
2018-04-15T01:41:58.549Z,0
2018-04-15T01:43:07.376Z,0
2018-04-15T01:44:16.403Z,0
2018-04-15T01:45:25.230Z,0
2018-04-15T01:46:34.060Z,0
2018-04-15T01:47:42.891Z,0
2018-04-15T01:48:51.723Z,0
2018-04-15T01:50:00.849Z,0
2018-04-15T01:51:09.680Z,0
2018-04-15T01:52:18.505Z,0
2018-04-15T01:53:27.333Z,0
2018-04-15T01:54:36.163Z,0
2018-04-15T01:55:45.422Z,0
2018-04-15T01:56:54.532Z,0
2018-04-15T01:58:03.362Z,0
2018-04-15T01:59:12.191Z,0
2018-04-15T02:00:21.570Z,0
2018-04-15T02:01:30.602Z,0
2018-04-15T02:02:39.431Z,0
2018-04-15T02:03:48.261Z,0
2018-04-15T02:04:57.091Z,0
2018-04-15T02:06:05.918Z,0
2018-04-15T02:07:14.902Z,0
2018-04-15T02:08:24.004Z,0
2018-04-15T02:09:33.107Z,0
2018-04-15T02:10:41.939Z,0
2018-04-15T02:11:50.818Z,0
2018-04-15T02:13:00.034Z,0
2018-04-15T02:14:09.143Z,0
2018-04-15T02:15:17.971Z,0
2018-04-15T02:16:26.803Z,0
2018-04-15T02:17:35.630Z,0
2018-04-15T02:18:44.759Z,0
2018-04-15T02:19:53.597Z,0
2018-04-15T02:21:02.703Z,0
2018-04-15T02:22:11.534Z,0
2018-04-15T02:23:20.369Z,0
2018-04-15T02:24:29.624Z,0
2018-04-15T02:25:38.451Z,0
2018-04-15T02:26:47.278Z,0
2018-04-15T02:27:56.110Z,0
2018-04-15T02:29:04.939Z,0
2018-04-15T02:30:14.145Z,0
2018-04-15T02:31:22.976Z,0
2018-04-15T02:32:32.085Z,0
2018-04-15T02:33:40.916Z,0
2018-04-15T02:34:49.749Z,0
2018-04-15T02:35:58.778Z,0
2018-04-15T02:37:07.892Z,0
2018-04-15T02:38:17.002Z,0
2018-04-15T02:39:26.121Z,0
2018-04-15T02:40:34.948Z,0
2018-04-15T02:41:44.104Z,0
2018-04-15T02:42:53.485Z,0
2018-04-15T02:44:02.881Z,0
2018-04-15T02:45:11.989Z,0
2018-04-15T02:46:21.115Z,0
2018-04-15T02:47:30.092Z,0
2018-04-15T02:48:38.920Z,0
2018-04-15T02:49:48.042Z,0
2018-04-15T02:50:57.155Z,0
2018-04-15T02:52:06.265Z,0
2018-04-15T02:53:15.524Z,0
2018-04-15T02:54:24.631Z,0
2018-04-15T02:55:33.464Z,0
2018-04-15T02:56:42.572Z,0
2018-04-15T02:57:51.405Z,0
2018-04-15T02:59:00.837Z,0
2018-04-15T03:00:09.671Z,0
2018-04-15T03:01:18.776Z,0
2018-04-15T03:02:27.880Z,0
2018-04-15T03:03:36.712Z,0
2018-04-15T03:04:45.887Z,0
2018-04-15T03:05:54.993Z,0
2018-04-15T03:07:03.827Z,0
2018-04-15T03:08:12.958Z,0
2018-04-15T03:09:22.063Z,0
2018-04-15T03:10:31.174Z,0
2018-04-15T03:11:40.274Z,0
2018-04-15T03:12:49.109Z,0
2018-04-15T03:13:58.213Z,0
2018-04-15T03:15:07.316Z,0
2018-04-15T03:16:16.149Z,0
2018-04-15T03:17:25.255Z,0
2018-04-15T03:18:34.080Z,0
2018-04-15T03:19:42.910Z,0
2018-04-15T03:20:51.739Z,0
2018-04-15T03:22:00.879Z,0
2018-04-15T03:23:09.983Z,0
2018-04-15T03:24:18.811Z,0
2018-04-15T03:25:27.920Z,0
2018-04-15T03:26:36.747Z,0
2018-04-15T03:27:45.786Z,0
2018-04-15T03:28:54.616Z,0
2018-04-15T03:30:03.446Z,0
2018-04-15T03:31:12.284Z,0
2018-04-15T03:32:21.675Z,0
2018-04-15T03:33:30.659Z,0
2018-04-15T03:34:39.487Z,0
2018-04-15T03:35:48.316Z,0
2018-04-15T03:36:57.148Z,0
2018-04-15T03:38:06.255Z,0
2018-04-15T03:39:15.406Z,0
2018-04-15T03:40:24.511Z,0
2018-04-15T03:41:33.627Z,0
2018-04-15T03:42:42.454Z,0
2018-04-15T03:43:51.308Z,0
2018-04-15T03:45:00.564Z,0
2018-04-15T03:46:09.675Z,0
2018-04-15T03:47:18.777Z,0
2018-04-15T03:48:27.608Z,0
2018-04-15T03:49:36.438Z,0
2018-04-15T03:50:45.276Z,0
2018-04-15T03:51:54.379Z,0
2018-04-15T03:53:03.216Z,0
2018-04-15T03:54:12.043Z,0
2018-04-15T03:55:20.875Z,0
2018-04-15T03:56:29.702Z,0
2018-04-15T03:57:38.805Z,0
2018-04-15T03:58:47.636Z,0
2018-04-15T03:59:56.466Z,0
2018-04-15T04:01:05.296Z,0
2018-04-15T04:02:14.275Z,0
2018-04-15T04:03:23.379Z,0
2018-04-15T04:04:32.257Z,0
2018-04-15T04:05:41.369Z,0
2018-04-15T04:06:50.191Z,4
2018-04-15T04:07:59.300Z,4
2018-04-15T04:09:08.401Z,0
2018-04-15T04:10:17.230Z,4
2018-04-15T04:11:26.062Z,4
2018-04-15T04:12:34.891Z,4
2018-04-15T04:13:44.062Z,4
2018-04-15T04:14:52.891Z,8
2018-04-15T04:16:01.717Z,8
2018-04-15T04:17:10.548Z,8
2018-04-15T04:18:19.381Z,12
2018-04-15T04:19:28.212Z,8
2018-04-15T04:20:37.044Z,12
2018-04-15T04:21:45.874Z,12
2018-04-15T04:22:54.702Z,12
2018-04-15T04:24:03.807Z,16
2018-04-15T04:25:12.914Z,16
2018-04-15T04:26:21.745Z,16
2018-04-15T04:27:30.850Z,20
2018-04-15T04:28:39.681Z,20
2018-04-15T04:29:48.514Z,24
2018-04-15T04:30:57.339Z,24
2018-04-15T04:32:06.169Z,28
2018-04-15T04:33:14.999Z,28
2018-04-15T04:34:23.830Z,32
2018-04-15T04:35:33.211Z,40
2018-04-15T04:36:42.368Z,48
2018-04-15T04:37:51.477Z,52
2018-04-15T04:39:00.310Z,56
2018-04-15T04:40:09.138Z,60
2018-04-15T04:41:17.970Z,68
2018-04-15T04:42:26.800Z,76
2018-04-15T04:43:35.630Z,84
2018-04-15T04:44:45.017Z,92
2018-04-15T04:45:53.849Z,96
2018-04-15T04:47:02.685Z,96
2018-04-15T04:48:11.516Z,96
2018-04-15T04:49:20.345Z,100
2018-04-15T04:50:29.179Z,104
2018-04-15T04:51:38.011Z,112
2018-04-15T04:52:46.839Z,120
2018-04-15T04:53:55.719Z,124
2018-04-15T04:55:04.550Z,132
2018-04-15T04:56:13.378Z,140
2018-04-15T04:57:22.210Z,144
2018-04-15T04:58:31.312Z,148
2018-04-15T04:59:40.444Z,156
2018-04-15T05:00:49.553Z,168
2018-04-15T05:01:58.382Z,180
2018-04-15T05:03:07.213Z,188
2018-04-15T05:04:16.048Z,200
2018-04-15T05:05:25.603Z,204
2018-04-15T05:06:34.433Z,204
2018-04-15T05:07:43.289Z,212
2018-04-15T05:08:52.365Z,220
2018-04-15T05:10:01.197Z,228
2018-04-15T05:11:10.347Z,236
2018-04-15T05:12:19.178Z,240
2018-04-15T05:13:28.011Z,240
2018-04-15T05:14:36.842Z,236
2018-04-15T05:15:45.672Z,228
2018-04-15T05:16:54.599Z,224
2018-04-15T05:18:03.434Z,216
2018-04-15T05:19:12.261Z,204
2018-04-15T05:20:21.093Z,192
2018-04-15T05:21:29.923Z,176
2018-04-15T05:22:38.904Z,164
2018-04-15T05:23:47.740Z,168
2018-04-15T05:24:56.573Z,188
2018-04-15T05:26:05.401Z,212
2018-04-15T05:27:14.237Z,232
2018-04-15T05:28:23.115Z,248
2018-04-15T05:29:31.948Z,248
2018-04-15T05:30:40.779Z,256
2018-04-15T05:31:49.612Z,260
2018-04-15T05:32:58.727Z,288
2018-04-15T05:34:07.651Z,316
2018-04-15T05:35:16.752Z,324
2018-04-15T05:36:25.582Z,320
2018-04-15T05:37:34.726Z,316
2018-04-15T05:38:43.527Z,312
2018-04-15T05:39:52.782Z,296
2018-04-15T05:41:01.613Z,280
2018-04-15T05:42:10.445Z,264
2018-04-15T05:43:19.279Z,244
2018-04-15T05:44:28.110Z,232
2018-04-15T05:45:36.938Z,240
2018-04-15T05:46:45.772Z,272
2018-04-15T05:47:54.603Z,320
2018-04-15T05:49:03.434Z,340
2018-04-15T05:50:12.263Z,316
2018-04-15T05:51:21.097Z,280
2018-04-15T05:52:30.203Z,284
2018-04-15T05:53:39.035Z,288
2018-04-15T05:54:47.867Z,316
2018-04-15T05:55:56.973Z,376
2018-04-15T05:57:05.807Z,428
2018-04-15T05:58:14.926Z,468
2018-04-15T05:59:23.757Z,500
2018-04-15T06:00:32.877Z,520
2018-04-15T06:01:41.717Z,532
2018-04-15T06:02:50.822Z,536
2018-04-15T06:03:59.658Z,516
2018-04-15T06:05:08.489Z,480
2018-04-15T06:06:17.323Z,472
2018-04-15T06:07:26.154Z,456
2018-04-15T06:08:35.310Z,456
2018-04-15T06:09:44.138Z,480
2018-04-15T06:10:52.969Z,520
2018-04-15T06:12:01.799Z,536
2018-04-15T06:13:11.200Z,508
2018-04-15T06:14:20.024Z,496
2018-04-15T06:15:29.131Z,468
2018-04-15T06:16:37.965Z,456
2018-04-15T06:17:46.798Z,456
2018-04-15T06:18:55.629Z,472
2018-04-15T06:20:04.460Z,492
2018-04-15T06:21:13.563Z,472
2018-04-15T06:22:22.395Z,448
2018-04-15T06:23:31.222Z,448
2018-04-15T06:24:40.501Z,412
2018-04-15T06:25:49.291Z,372
2018-04-15T06:26:58.123Z,412
2018-04-15T06:28:07.507Z,472
2018-04-15T06:29:16.337Z,476
2018-04-15T06:30:25.168Z,500
2018-04-15T06:31:34.002Z,540
2018-04-15T06:32:42.834Z,584
2018-04-15T06:33:51.666Z,556
2018-04-15T06:35:00.771Z,540
2018-04-15T06:36:09.602Z,500
2018-04-15T06:37:18.531Z,480
2018-04-15T06:38:27.362Z,532
2018-04-15T06:39:36.742Z,548
2018-04-15T06:40:45.576Z,544
2018-04-15T06:41:54.406Z,560
2018-04-15T06:43:03.537Z,568
2018-04-15T06:44:12.367Z,576
2018-04-15T06:45:21.905Z,620
2018-04-15T06:46:30.681Z,640
2018-04-15T06:47:39.785Z,628
2018-04-15T06:48:48.915Z,648
2018-04-15T06:49:58.023Z,568
2018-04-15T06:51:06.854Z,624
2018-04-15T06:52:15.683Z,716
2018-04-15T06:53:24.513Z,728
2018-04-15T06:54:33.493Z,760
2018-04-15T06:55:42.331Z,832
2018-04-15T06:56:51.157Z,884
2018-04-15T06:57:59.987Z,956
2018-04-15T06:59:08.818Z,980
2018-04-15T07:00:18.271Z,912
2018-04-15T07:01:27.125Z,896
2018-04-15T07:02:35.935Z,948
2018-04-15T07:03:44.770Z,956
2018-04-15T07:04:53.602Z,940
2018-04-15T07:06:02.718Z,924
2018-04-15T07:07:11.547Z,908
2018-04-15T07:08:20.376Z,888
2018-04-15T07:09:29.207Z,864
2018-04-15T07:10:38.042Z,884
2018-04-15T07:11:46.877Z,920
2018-04-15T07:12:55.983Z,944
2018-04-15T07:14:05.369Z,1004
2018-04-15T07:15:14.211Z,1112
2018-04-15T07:16:23.323Z,1188
2018-04-15T07:17:32.303Z,1224
2018-04-15T07:18:41.135Z,1260
2018-04-15T07:19:50.247Z,1284
2018-04-15T07:20:59.082Z,1328
2018-04-15T07:22:07.913Z,1392
2018-04-15T07:23:17.320Z,1444
2018-04-15T07:24:26.156Z,1444
2018-04-15T07:25:34.985Z,1400
2018-04-15T07:26:44.094Z,1356
2018-04-15T07:27:52.925Z,1388
2018-04-15T07:29:01.809Z,1440
2018-04-15T07:30:10.916Z,1480
2018-04-15T07:31:20.038Z,1524
2018-04-15T07:32:28.861Z,1564
2018-04-15T07:33:37.697Z,1592
2018-04-15T07:34:46.773Z,1612
2018-04-15T07:35:55.605Z,1636
2018-04-15T07:37:04.436Z,1640
2018-04-15T07:38:13.268Z,1620
2018-04-15T07:39:22.096Z,1596
2018-04-15T07:40:31.254Z,1584
2018-04-15T07:41:40.085Z,1592
2018-04-15T07:42:48.918Z,1596
2018-04-15T07:43:57.751Z,1528
2018-04-15T07:45:06.585Z,1512
2018-04-15T07:46:15.568Z,1508
2018-04-15T07:47:24.686Z,1476
2018-04-15T07:48:33.590Z,1416
2018-04-15T07:49:42.422Z,1356
2018-04-15T07:50:51.259Z,1468
2018-04-15T07:52:00.091Z,1548
2018-04-15T07:53:09.210Z,1620
2018-04-15T07:54:18.597Z,1708
2018-04-15T07:55:27.435Z,1740
2018-04-15T07:56:36.276Z,1752
2018-04-15T07:57:45.118Z,1752
2018-04-15T07:58:54.228Z,1760
2018-04-15T08:00:03.064Z,1748
2018-04-15T08:01:12.173Z,1720
2018-04-15T08:02:21.616Z,1648
2018-04-15T08:03:30.402Z,1572
2018-04-15T08:04:39.233Z,1584
2018-04-15T08:05:48.065Z,1656
2018-04-15T08:06:56.900Z,1680
2018-04-15T08:08:06.011Z,1704
2018-04-15T08:09:14.845Z,1752
2018-04-15T08:10:23.675Z,1832
2018-04-15T08:11:32.506Z,1864
2018-04-15T08:12:41.613Z,2020
2018-04-15T08:13:50.444Z,2204
2018-04-15T08:14:59.281Z,2196
2018-04-15T08:16:08.387Z,2240
2018-04-15T08:17:18.109Z,2196
2018-04-15T08:18:27.218Z,2188
2018-04-15T08:19:36.604Z,2044
2018-04-15T08:20:45.709Z,1860
2018-04-15T08:21:54.543Z,1908
2018-04-15T08:23:03.679Z,2012
2018-04-15T08:24:12.787Z,1924
2018-04-15T08:25:21.618Z,1888
2018-04-15T08:26:30.731Z,1844
2018-04-15T08:27:39.579Z,2060
2018-04-15T08:28:48.843Z,2128
2018-04-15T08:29:57.678Z,2404
2018-04-15T08:31:06.527Z,2480
2018-04-15T08:32:15.341Z,2572
2018-04-15T08:33:24.171Z,2676
2018-04-15T08:34:33.105Z,2720
2018-04-15T08:35:41.935Z,2632
2018-04-15T08:36:51.056Z,2656
2018-04-15T08:37:59.889Z,2840
2018-04-15T08:39:08.723Z,2988
2018-04-15T08:40:17.556Z,2988
2018-04-15T08:41:26.390Z,2564
2018-04-15T08:42:35.222Z,2408
2018-04-15T08:43:44.380Z,2516
2018-04-15T08:44:53.212Z,2496
2018-04-15T08:46:02.348Z,2548
2018-04-15T08:47:11.177Z,2800
2018-04-15T08:48:20.008Z,2868
2018-04-15T08:49:28.843Z,2720
2018-04-15T08:50:37.678Z,2920
2018-04-15T08:51:46.810Z,3044
2018-04-15T08:52:55.644Z,3004
2018-04-15T08:54:04.475Z,3016
2018-04-15T08:55:13.309Z,2920
2018-04-15T08:56:22.419Z,3020
2018-04-15T08:57:31.258Z,2872
2018-04-15T08:58:40.639Z,3112
2018-04-15T08:59:49.475Z,3016
2018-04-15T09:00:58.584Z,3104
2018-04-15T09:02:07.420Z,3060
2018-04-15T09:03:16.260Z,3172
2018-04-15T09:04:25.105Z,3220
2018-04-15T09:05:33.917Z,3184
2018-04-15T09:06:42.802Z,3020
2018-04-15T09:07:51.636Z,3024
2018-04-15T09:09:00.602Z,3156
2018-04-15T09:10:09.405Z,3244
2018-04-15T09:11:18.510Z,3488
2018-04-15T09:12:27.628Z,3332
2018-04-15T09:13:37.014Z,3640
2018-04-15T09:14:46.154Z,3660
2018-04-15T09:15:54.984Z,3724
2018-04-15T09:17:03.816Z,3668
2018-04-15T09:18:12.937Z,3676
2018-04-15T09:19:22.143Z,3776
2018-04-15T09:20:31.179Z,3872
2018-04-15T09:21:40.012Z,3880
2018-04-15T09:22:48.896Z,4332
2018-04-15T09:23:57.729Z,4504
2018-04-15T09:25:06.561Z,4660
2018-04-15T09:26:15.392Z,4856
2018-04-15T09:27:24.519Z,4812
2018-04-15T09:28:33.363Z,4952
2018-04-15T09:29:42.190Z,5012
2018-04-15T09:30:51.024Z,4928
2018-04-15T09:31:59.920Z,4860
2018-04-15T09:33:08.753Z,4860
2018-04-15T09:34:17.589Z,5244
2018-04-15T09:35:26.421Z,5088
2018-04-15T09:36:35.256Z,4796
2018-04-15T09:37:44.140Z,3944
2018-04-15T09:38:52.973Z,3928
2018-04-15T09:40:02.088Z,4096
2018-04-15T09:41:11.894Z,3920
2018-04-15T09:42:20.734Z,3324
2018-04-15T09:43:29.929Z,3072
2018-04-15T09:44:38.768Z,3020
2018-04-15T09:45:47.603Z,3124
2018-04-15T09:46:56.713Z,3380
2018-04-15T09:48:05.543Z,3504
2018-04-15T09:49:14.527Z,3524
2018-04-15T09:50:23.647Z,3412
2018-04-15T09:51:32.476Z,3180
2018-04-15T09:52:41.651Z,3080
2018-04-15T09:53:50.482Z,2816
2018-04-15T09:54:59.735Z,2900
2018-04-15T09:56:08.572Z,3436
2018-04-15T09:57:17.678Z,3540
2018-04-15T09:58:26.516Z,3440
2018-04-15T09:59:35.356Z,3376
2018-04-15T10:00:44.188Z,3300
2018-04-15T10:01:53.053Z,3188
2018-04-15T10:03:02.165Z,3304
2018-04-15T10:04:11.006Z,3112
2018-04-15T10:05:19.834Z,3164
2018-04-15T10:06:28.667Z,3896
2018-04-15T10:07:37.500Z,4152
2018-04-15T10:08:46.336Z,4040
2018-04-15T10:09:55.169Z,4472
2018-04-15T10:11:04.291Z,4756
2018-04-15T10:12:13.405Z,3920
2018-04-15T10:13:22.513Z,3848
2018-04-15T10:14:31.345Z,3824
2018-04-15T10:15:40.464Z,3764
2018-04-15T10:16:49.315Z,3840
2018-04-15T10:17:58.169Z,3860
2018-04-15T10:19:07.003Z,3824
2018-04-15T10:20:15.848Z,4020
2018-04-15T10:21:24.744Z,3992
2018-04-15T10:22:33.577Z,3792
2018-04-15T10:23:42.561Z,3788
2018-04-15T10:24:51.670Z,3688
2018-04-15T10:26:00.502Z,3492
2018-04-15T10:27:09.863Z,3384
2018-04-15T10:28:18.716Z,3256
2018-04-15T10:29:28.082Z,3340
2018-04-15T10:30:37.191Z,3336
2018-04-15T10:31:46.577Z,3612
2018-04-15T10:32:55.409Z,4168
2018-04-15T10:34:04.240Z,3992
2018-04-15T10:35:13.501Z,4088
2018-04-15T10:36:22.609Z,4152
2018-04-15T10:37:32.000Z,3956
2018-04-15T10:38:40.867Z,4148
2018-04-15T10:39:49.960Z,3824
2018-04-15T10:40:58.956Z,3620
2018-04-15T10:42:08.343Z,3268
2018-04-15T10:43:17.171Z,2992
2018-04-15T10:44:26.002Z,2784
2018-04-15T10:45:35.111Z,2764
2018-04-15T10:46:43.944Z,2388
2018-04-15T10:47:52.777Z,2596
2018-04-15T10:49:01.885Z,2920
2018-04-15T10:50:10.994Z,3040
2018-04-15T10:51:20.101Z,3304
2018-04-15T10:52:29.513Z,3612
2018-04-15T10:53:38.350Z,3576
2018-04-15T10:54:47.188Z,3876
2018-04-15T10:55:56.015Z,3740
2018-04-15T10:57:04.856Z,3464
2018-04-15T10:58:13.791Z,3636
2018-04-15T10:59:22.634Z,3536
2018-04-15T11:00:31.475Z,3572
2018-04-15T11:01:40.308Z,3612
2018-04-15T11:02:49.428Z,4072
2018-04-15T11:03:58.554Z,4032
2018-04-15T11:05:07.388Z,3936
2018-04-15T11:06:16.221Z,3916
2018-04-15T11:07:25.342Z,3320
2018-04-15T11:08:34.726Z,3120
2018-04-15T11:09:43.710Z,2964
2018-04-15T11:10:52.826Z,2816
2018-04-15T11:12:01.934Z,2756
2018-04-15T11:13:11.053Z,2596
2018-04-15T11:14:20.166Z,2608
2018-04-15T11:15:29.052Z,2656
2018-04-15T11:16:37.887Z,2904
2018-04-15T11:17:46.717Z,2992
2018-04-15T11:18:55.553Z,3004
2018-04-15T11:20:04.432Z,3252
2018-04-15T11:21:13.929Z,3612
2018-04-15T11:22:22.765Z,3492
2018-04-15T11:23:31.607Z,3528
2018-04-15T11:24:41.045Z,3456
2018-04-15T11:25:49.873Z,3592
2018-04-15T11:26:58.707Z,4168
2018-04-15T11:28:07.541Z,5172
2018-04-15T11:29:16.373Z,5984
2018-04-15T11:30:25.209Z,6912
2018-04-15T11:31:34.041Z,7308
2018-04-15T11:32:42.925Z,7812
2018-04-15T11:33:51.761Z,7824
2018-04-15T11:35:00.596Z,8024
2018-04-15T11:36:09.428Z,7736
2018-04-15T11:37:18.261Z,7016
2018-04-15T11:38:27.639Z,6648
2018-04-15T11:39:36.462Z,7112
2018-04-15T11:40:45.296Z,7432
2018-04-15T11:41:54.136Z,7744
2018-04-15T11:43:02.971Z,7112
2018-04-15T11:44:12.231Z,6364
2018-04-15T11:45:21.348Z,6160
2018-04-15T11:46:30.453Z,7772
2018-04-15T11:47:39.288Z,15088
2018-04-15T11:48:48.162Z,18176
2018-04-15T11:49:57.557Z,14412
2018-04-15T11:51:06.705Z,13428
2018-04-15T11:52:16.089Z,10684
2018-04-15T11:53:25.199Z,12512
2018-04-15T11:54:34.035Z,12824
2018-04-15T11:55:42.870Z,12352
2018-04-15T11:56:51.705Z,16672
2018-04-15T11:58:00.543Z,16308
2018-04-15T11:59:09.379Z,20000
2018-04-15T12:00:18.215Z,30464
2018-04-15T12:01:27.051Z,39744
2018-04-15T12:02:36.162Z,53760
2018-04-15T12:03:45.295Z,25888
2018-04-15T12:04:54.822Z,30496
2018-04-15T12:06:03.666Z,18464
2018-04-15T12:07:12.782Z,32640
2018-04-15T12:08:21.628Z,32064
2018-04-15T12:09:30.463Z,12084
2018-04-15T12:10:39.306Z,16480
2018-04-15T12:11:48.679Z,20160
2018-04-15T12:12:57.732Z,12984
2018-04-15T12:14:06.825Z,16604
2018-04-15T12:15:15.666Z,17952
2018-04-15T12:16:24.777Z,21120
2018-04-15T12:17:33.854Z,14636
2018-04-15T12:18:42.938Z,19296
2018-04-15T12:19:51.780Z,20928
2018-04-15T12:21:00.901Z,22464
2018-04-15T12:22:10.333Z,15756
2018-04-15T12:23:19.173Z,32896
2018-04-15T12:24:28.547Z,55680
2018-04-15T12:25:37.624Z,27232
2018-04-15T12:26:46.495Z,53632
2018-04-15T12:27:55.577Z,48416
2018-04-15T12:29:04.417Z,60032
2018-04-15T12:30:13.699Z,59776
2018-04-15T12:31:22.544Z,45984
2018-04-15T12:32:31.381Z,12544
2018-04-15T12:33:40.537Z,9416
2018-04-15T12:34:49.650Z,11756
2018-04-15T12:35:58.541Z,11232
2018-04-15T12:37:07.656Z,16136
2018-04-15T12:38:16.502Z,17696
2018-04-15T12:39:25.345Z,11848
2018-04-15T12:40:34.467Z,29632
2018-04-15T12:41:43.915Z,47392
2018-04-15T12:42:53.029Z,33792
2018-04-15T12:44:01.871Z,29440
2018-04-15T12:45:10.987Z,25984
2018-04-15T12:46:19.842Z,18208
2018-04-15T12:47:29.008Z,27488
2018-04-15T12:48:37.849Z,12100
2018-04-15T12:49:46.691Z,21920
2018-04-15T12:50:56.044Z,19456
2018-04-15T12:52:04.895Z,33568
2018-04-15T12:53:13.843Z,31936
2018-04-15T12:54:22.767Z,34080
2018-04-15T12:55:31.611Z,32768
2018-04-15T12:56:40.459Z,42336
2018-04-15T12:57:49.578Z,55424
2018-04-15T12:58:58.806Z,23456
2018-04-15T13:00:07.698Z,48608
2018-04-15T13:01:16.490Z,46048
2018-04-15T13:02:25.336Z,39680
2018-04-15T13:03:34.188Z,44096
2018-04-15T13:04:43.030Z,14160
2018-04-15T13:05:52.152Z,22720
2018-04-15T13:07:00.995Z,29408
2018-04-15T13:08:09.838Z,11476
2018-04-15T13:09:18.684Z,9548
2018-04-15T13:10:27.530Z,9244
2018-04-15T13:11:36.373Z,15824
2018-04-15T13:12:45.217Z,34784
2018-04-15T13:13:54.059Z,56704
2018-04-15T13:15:02.903Z,46976
2018-04-15T13:16:11.749Z,33984
2018-04-15T13:17:20.871Z,12556
2018-04-15T13:18:29.717Z,7464
2018-04-15T13:19:38.560Z,7740
2018-04-15T13:20:47.405Z,8924
2018-04-15T13:21:56.398Z,14672
2018-04-15T13:23:05.243Z,41120
2018-04-15T13:24:14.085Z,34816
2018-04-15T13:25:23.202Z,30112
2018-04-15T13:26:32.044Z,28576
2018-04-15T13:27:40.936Z,42880
2018-04-15T13:28:49.834Z,13948
2018-04-15T13:29:58.642Z,9084
2018-04-15T13:31:07.497Z,9468
2018-04-15T13:32:16.357Z,11476
2018-04-15T13:33:25.625Z,13184
2018-04-15T13:34:34.475Z,11036
2018-04-15T13:35:43.313Z,9520
2018-04-15T13:36:52.159Z,10776
2018-04-15T13:38:01.005Z,44096
2018-04-15T13:39:10.225Z,22752
2018-04-15T13:40:19.379Z,13020
2018-04-15T13:41:28.504Z,24864
2018-04-15T13:42:37.351Z,19904
2018-04-15T13:43:46.196Z,13428
2018-04-15T13:44:55.191Z,10844
2018-04-15T13:46:04.034Z,11896
2018-04-15T13:47:12.874Z,20192
2018-04-15T13:48:21.724Z,50720
2018-04-15T13:49:30.567Z,18016
2018-04-15T13:50:39.657Z,20416
2018-04-15T13:51:48.500Z,42816
2018-04-15T13:52:57.617Z,44864
2018-04-15T13:54:06.462Z,29056
2018-04-15T13:55:15.358Z,17184
2018-04-15T13:56:24.357Z,26144
2018-04-15T13:57:33.204Z,16640
2018-04-15T13:58:42.048Z,10912
2018-04-15T13:59:50.891Z,26240
2018-04-15T14:00:59.736Z,34464
2018-04-15T14:02:08.956Z,17312
2018-04-15T14:03:17.800Z,37920
2018-04-15T14:04:26.925Z,31392
2018-04-15T14:05:35.780Z,44896
2018-04-15T14:06:44.614Z,14436
2018-04-15T14:07:53.467Z,14268
2018-04-15T14:09:02.303Z,16992
2018-04-15T14:10:11.143Z,29440
2018-04-15T14:11:19.987Z,20864
2018-04-15T14:12:28.835Z,18624
2018-04-15T14:13:37.778Z,14048
2018-04-15T14:14:46.897Z,13360
2018-04-15T14:15:55.741Z,13280
2018-04-15T14:17:04.584Z,14884
2018-04-15T14:18:13.439Z,13460
2018-04-15T14:19:22.607Z,9756
2018-04-15T14:20:31.729Z,6572
2018-04-15T14:21:40.574Z,6088
2018-04-15T14:22:49.982Z,6888
2018-04-15T14:23:58.823Z,7428
2018-04-15T14:25:08.195Z,8420
2018-04-15T14:26:17.327Z,8948
2018-04-15T14:27:26.742Z,8628
2018-04-15T14:28:35.856Z,9160
2018-04-15T14:29:44.702Z,12252
2018-04-15T14:30:53.796Z,12652
2018-04-15T14:32:02.638Z,15576
2018-04-15T14:33:11.496Z,11536
2018-04-15T14:34:20.598Z,7708
2018-04-15T14:35:29.438Z,7072
2018-04-15T14:36:38.379Z,7520
2018-04-15T14:37:47.221Z,9144
2018-04-15T14:38:56.069Z,12264
2018-04-15T14:40:04.904Z,11100
2018-04-15T14:41:13.749Z,11264
2018-04-15T14:42:23.022Z,8068
2018-04-15T14:43:32.155Z,7568
2018-04-15T14:44:41.000Z,10112
2018-04-15T14:45:49.840Z,14236
2018-04-15T14:46:58.681Z,12060
2018-04-15T14:48:07.669Z,9176
2018-04-15T14:49:16.510Z,30656
2018-04-15T14:50:25.633Z,14632
2018-04-15T14:51:34.746Z,14540
2018-04-15T14:52:43.586Z,9316
2018-04-15T14:53:52.475Z,38112
2018-04-15T14:55:01.317Z,15016
2018-04-15T14:56:10.155Z,16536
2018-04-15T14:57:19.274Z,35776
2018-04-15T14:58:28.116Z,22048
2018-04-15T14:59:36.959Z,11860
2018-04-15T15:00:45.802Z,18720
2018-04-15T15:01:54.642Z,12064
2018-04-15T15:03:03.758Z,11672
2018-04-15T15:04:12.600Z,42496
2018-04-15T15:05:21.591Z,38816
2018-04-15T15:06:30.707Z,39488
2018-04-15T15:07:39.553Z,12288
2018-04-15T15:08:48.395Z,26400
2018-04-15T15:09:57.236Z,23552
2018-04-15T15:11:06.225Z,14144
2018-04-15T15:12:15.067Z,26464
2018-04-15T15:13:24.186Z,14828
2018-04-15T15:14:33.303Z,10168
2018-04-15T15:15:42.148Z,7808
2018-04-15T15:16:51.200Z,5588
2018-04-15T15:18:00.046Z,4616
2018-04-15T15:19:09.445Z,5092
2018-04-15T15:20:18.563Z,5152
2018-04-15T15:21:27.409Z,4664
2018-04-15T15:22:36.840Z,5860
2018-04-15T15:23:45.956Z,8316
2018-04-15T15:24:54.799Z,10256
2018-04-15T15:26:04.482Z,9288
2018-04-15T15:27:13.375Z,7032
2018-04-15T15:28:22.789Z,8480
2018-04-15T15:29:31.920Z,11008
2018-04-15T15:30:41.036Z,13520
2018-04-15T15:31:49.875Z,8992
2018-04-15T15:32:58.998Z,8596
2018-04-15T15:34:08.412Z,36448
2018-04-15T15:35:17.531Z,36640
2018-04-15T15:36:26.372Z,35648
2018-04-15T15:37:35.214Z,34464
2018-04-15T15:38:44.329Z,33440
2018-04-15T15:39:53.326Z,25824
2018-04-15T15:41:02.168Z,10572
2018-04-15T15:42:11.058Z,7596
2018-04-15T15:43:20.152Z,6688
2018-04-15T15:44:28.994Z,8676